Terminal Aerodrome Forecast
Issued by NWS

Home | Current Version | Previous Version | Text Only | Print | Product List | Glossary On
Versions: 1 2 3 4 5 6 7 8 9 10 11 12 13 14 15 16 17
539
FTUS45 KABQ 180911 AAA
TAFTCC
TAF AMD
KTCC 180911Z 1809/1906 24013KT P6SM BKN040
      TEMPO 1811/1814 BKN030
     FM181900 24015G24KT P6SM SCT060
     FM190000 25014KT P6SM SCT070=

USA.gov is the U.S. government's official web portal to all federal, state and local government web resources and services.